Dades meteomassalio
Diari Summary for Juny 9, 2017 Units:  English    Metric   Both
« Previous Day
Next Day »
Diari Semanal Mensual Anual Personalitzat
  Maxima: Minima: Mijana:
Temperatura: TemperatureC °F 16.9 °F 24 °F
Rosada: DewpointC °F 10.9 °F 15.7 °F
Humitat: Humidity % 40 % 62 %
Velocitat del vent: WindSpeedKMH mph 0.0 mph 5.9 mph
Racha vent: WindSpeedGustKMH mph - -
Vent:- - East
Pressio: PressurehPa in 1012.1 in -
Pluja: 0.0 in    
Historical Graphs
 
 
Tabular Data for Juny 9, 2017
Time Temperature Dew Point Pressure Wind Wind Speed Wind Gust Humidity Rainfall Rate (Hourly) solar Conditions
TemperatureC °F DewpointC °F PressurehPa in Calm     Humidity % HourlyPrecipMM in SolarRadiationWatts/m^2 W/m2 Conditions
00:03 23.7 °F 11.7 °F 1012.4 in SSE 13.0 mph 13.0 mph 47 % 0.0 in 0.0 W/m2 CLR
00:13 23.8 °F 11.4 °F 1012.4 in SSE 5.6 mph 5.6 mph 46 % 0.0 in 0.0 W/m2 CLR
00:18 23.8 °F 11.2 °F 1012.4 in SSE 5.6 mph 5.6 mph 45 % 0.0 in 0.0 W/m2 CLR
00:23 23.8 °F 11.2 °F 1012.4 in South 7.4 mph 7.4 mph 45 % 0.0 in 0.0 W/m2 CLR
00:28 23.8 °F 11.2 °F 1012.4 in SSE 6.4 mph 6.4 mph 45 % 0.0 in 0.0 W/m2 CLR
00:33 23.9 °F 10.9 °F 1012.4 in Calm     44 % 0.0 in 0.0 W/m2 CLR
00:38 23.9 °F 10.9 °F 1012.4 in Calm     44 % 0.0 in 0.0 W/m2 CLR
00:43 23.9 °F 11.2 °F 1012.8 in Calm     45 % 0.0 in 0.0 W/m2 CLR
00:48 23.8 °F 11.1 °F 1012.8 in Calm     45 % 0.0 in 0.0 W/m2 CLR
00:53 23.7 °F 11.7 °F 1012.8 in Calm     47 % 0.0 in 0.0 W/m2 CLR
00:54 23.7 °F 11.7 °F 1013.1 in Calm     47 % 0.0 in 0.0 W/m2 CLR
00:59 23.6 °F 12.2 °F 1013.1 in ENE 5.6 mph 5.6 mph 49 % 0.0 in 0.0 W/m2 CLR
01:04 23.0 °F 13.7 °F 1013.1 in Calm     56 % 0.0 in 0.0 W/m2 CLR
01:09 22.3 °F 14.2 °F 1013.1 in NNE 6.4 mph 6.4 mph 60 % 0.0 in 0.0 W/m2 CLR
01:14 21.8 °F 14.7 °F 1013.1 in NE 11.1 mph 11.1 mph 64 % 0.0 in 0.0 W/m2 CLR
01:19 21.1 °F 15.7 °F 1013.4 in NE 31.5 mph 31.5 mph 71 % 0.0 in 0.0 W/m2 CLR
01:24 20.3 °F 15.8 °F 1013.4 in ENE 19.3 mph 19.3 mph 75 % 0.0 in 0.0 W/m2 CLR
01:29 20.0 °F 16.1 °F 1013.4 in NE 16.7 mph 16.7 mph 78 % 0.0 in 0.0 W/m2 CLR
01:34 19.7 °F 16.0 °F 1013.4 in ENE 1.6 mph 1.6 mph 79 % 0.0 in 0.0 W/m2 CLR
01:39 19.6 °F 16.0 °F 1013.8 in NE 3.2 mph 3.2 mph 80 % 0.0 in 0.0 W/m2 CLR
01:44 19.4 °F 16.1 °F 1013.8 in Calm     81 % 0.0 in 0.0 W/m2 CLR
01:49 19.3 °F 16.2 °F 1013.8 in Calm     82 % 0.0 in 0.0 W/m2 CLR
01:54 19.3 °F 16.1 °F 1013.8 in Calm     82 % 0.0 in 0.0 W/m2 CLR
01:59 19.2 °F 16.3 °F 1013.8 in Calm     83 % 0.0 in 0.0 W/m2 CLR
02:04 19.1 °F 16.2 °F 1013.8 in Calm     83 % 0.0 in 0.0 W/m2 CLR
02:09 19.1 °F 16.1 °F 1013.8 in Calm     83 % 0.0 in 0.0 W/m2 CLR
02:14 19.0 °F 16.2 °F 1013.8 in Calm     84 % 0.0 in 0.0 W/m2 CLR
02:19 18.9 °F 16.1 °F 1013.8 in Calm     84 % 0.0 in 0.0 W/m2 CLR
02:24 18.8 °F 16.3 °F 1013.4 in Calm     85 % 0.0 in 0.0 W/m2 CLR
02:29 18.8 °F 16.3 °F 1013.4 in Calm     85 % 0.0 in 0.0 W/m2 CLR
02:34 18.8 °F 16.2 °F 1013.8 in Calm     85 % 0.0 in 0.0 W/m2 CLR
02:39 18.8 °F 16.2 °F 1013.4 in Calm     85 % 0.0 in 0.0 W/m2 CLR
02:44 18.7 °F 16.3 °F 1013.8 in Calm     86 % 0.0 in 0.0 W/m2 CLR
02:49 18.7 °F 16.3 °F 1014.1 in Calm     86 % 0.0 in 0.0 W/m2 CLR
02:54 18.7 °F 16.3 °F 1014.1 in Calm     86 % 0.0 in 0.0 W/m2 CLR
02:59 18.6 °F 16.2 °F 1014.1 in Calm     86 % 0.0 in 0.0 W/m2 CLR
03:04 18.6 °F 16.2 °F 1013.8 in Calm     86 % 0.0 in 0.0 W/m2 CLR
03:09 18.6 °F 16.2 °F 1013.4 in Calm     86 % 0.0 in 0.0 W/m2 CLR
03:14 18.7 °F 16.3 °F 1013.4 in Calm     86 % 0.0 in 0.0 W/m2 CLR
03:19 18.7 °F 16.3 °F 1013.1 in Calm     86 % 0.0 in 0.0 W/m2 CLR
03:24 18.6 °F 16.2 °F 1013.4 in Calm     86 % 0.0 in 0.0 W/m2 CLR
03:29 18.6 °F 16.2 °F 1013.4 in Calm     86 % 0.0 in 0.0 W/m2 CLR
03:34 18.6 °F 16.3 °F 1013.4 in Calm     87 % 0.0 in 0.0 W/m2 CLR
03:39 18.6 °F 16.3 °F 1013.4 in Calm     87 % 0.0 in 0.0 W/m2 CLR
03:44 18.6 °F 16.3 °F 1013.1 in Calm     87 % 0.0 in 0.0 W/m2 CLR
03:49 18.6 °F 16.3 °F 1013.1 in Calm     87 % 0.0 in 0.0 W/m2 CLR
03:54 18.6 °F 16.4 °F 1013.1 in Calm     87 % 0.0 in 0.0 W/m2 CLR
03:59 18.6 °F 16.2 °F 1012.8 in Calm     86 % 0.0 in 0.0 W/m2 CLR
04:04 18.6 °F 16.2 °F 1013.1 in Calm     86 % 0.0 in 0.0 W/m2 CLR
04:09 18.5 °F 16.3 °F 1013.1 in Calm     87 % 0.0 in 0.0 W/m2 CLR
04:14 18.4 °F 16.2 °F 1013.1 in Calm     87 % 0.0 in 0.0 W/m2 CLR
04:16 18.4 °F 16.2 °F 1012.8 in Calm     87 % 0.0 in 0.0 W/m2 CLR
04:21 18.4 °F 16.2 °F 1012.8 in Calm     87 % 0.0 in 0.0 W/m2 CLR
04:26 18.3 °F 16.1 °F 1012.8 in Calm     87 % 0.0 in 0.0 W/m2 CLR
04:31 18.2 °F 16.0 °F 1012.8 in Calm     87 % 0.0 in 0.0 W/m2 CLR
04:36 18.2 °F 16.0 °F 1012.8 in Calm     87 % 0.0 in 0.0 W/m2 CLR
04:41 18.1 °F 15.9 °F 1012.8 in Calm     87 % 0.0 in 0.0 W/m2 CLR
04:46 18.1 °F 15.8 °F 1012.8 in Calm     87 % 0.0 in 0.0 W/m2 CLR
04:51 17.9 °F 15.9 °F 1012.8 in Calm     88 % 0.0 in 0.0 W/m2 CLR
04:56 17.9 °F 15.9 °F 1012.8 in Calm     88 % 0.0 in 0.0 W/m2 CLR
05:01 17.8 °F 15.8 °F 1013.1 in Calm     88 % 0.0 in 0.0 W/m2 CLR
05:06 17.8 °F 15.8 °F 1013.1 in Calm     88 % 0.0 in 0.0 W/m2 CLR
05:11 17.8 °F 15.8 °F 1013.1 in Calm     88 % 0.0 in 0.0 W/m2 CLR
05:16 17.8 °F 15.8 °F 1013.1 in Calm     88 % 0.0 in 0.0 W/m2 CLR
05:21 17.7 °F 15.7 °F 1013.1 in Calm     88 % 0.0 in 0.0 W/m2 CLR
05:26 17.7 °F 15.7 °F 1013.4 in Calm     88 % 0.0 in 0.0 W/m2 CLR
05:31 17.7 °F 15.7 °F 1013.4 in Calm     88 % 0.0 in 0.0 W/m2 CLR
05:36 17.7 °F 15.7 °F 1013.4 in Calm     88 % 0.0 in 0.0 W/m2 CLR
05:41 17.7 °F 15.7 °F 1013.4 in Calm     88 % 0.0 in 0.0 W/m2 CLR
05:46 17.7 °F 15.7 °F 1013.8 in Calm     88 % 0.0 in 0.0 W/m2 CLR
05:51 17.7 °F 15.7 °F 1013.8 in Calm     88 % 0.0 in 0.0 W/m2 CLR
05:56 17.6 °F 15.6 °F 1013.8 in Calm     88 % 0.0 in 0.0 W/m2 CLR
06:01 17.6 °F 15.6 °F 1013.8 in Calm     88 % 0.0 in 0.0 W/m2 CLR
06:11 17.5 °F 15.7 °F 1013.8 in Calm     89 % 0.0 in 0.0 W/m2 CLR
06:16 17.4 °F 15.6 °F 1013.8 in Calm     89 % 0.0 in 0.0 W/m2 CLR
06:21 17.4 °F 15.6 °F 1013.8 in Calm     89 % 0.0 in 0.0 W/m2 OVC
06:26 17.2 °F 15.4 °F 1013.8 in Calm     89 % 0.0 in 0.0 W/m2 OVC
06:31 17.1 °F 15.3 °F 1013.8 in Calm     89 % 0.0 in 0.0 W/m2 OVC
06:36 17.1 °F 15.3 °F 1013.8 in Calm     89 % 0.0 in 5.0 W/m2 OVC
06:41 17.1 °F 15.2 °F 1013.8 in Calm     89 % 0.0 in 5.0 W/m2 OVC
06:46 17.0 °F 15.3 °F 1013.8 in Calm     90 % 0.0 in 7.0 W/m2 BKN
06:51 16.9 °F 15.3 °F 1013.8 in Calm     90 % 0.0 in 12.0 W/m2 BKN
06:56 16.9 °F 15.3 °F 1013.8 in Calm     90 % 0.0 in 19.0 W/m2 BKN
07:01 16.9 °F 15.3 °F 1013.8 in Calm     90 % 0.0 in 26.0 W/m2 BKN
07:06 16.9 °F 15.2 °F 1013.8 in Calm     90 % 0.0 in 33.0 W/m2 BKN
07:11 16.9 °F 15.2 °F 1013.8 in Calm     90 % 0.0 in 39.0 W/m2 BKN
07:16 16.9 °F 15.2 °F 1014.1 in Calm     90 % 0.0 in 47.0 W/m2 SCT
07:21 17.0 °F 15.3 °F 1014.1 in Calm     90 % 0.0 in 67.0 W/m2 SCT
07:26 17.1 °F 15.4 °F 1014.1 in Calm     90 % 0.0 in 77.0 W/m2 FEW
07:31 17.1 °F 15.4 °F 1014.1 in Calm     90 % 0.0 in 93.0 W/m2 FEW
07:36 17.2 °F 15.6 °F 1014.1 in Calm     90 % 0.0 in 109.0 W/m2 CLR
07:41 17.4 °F 15.8 °F 1014.1 in Calm     90 % 0.0 in 127.0 W/m2 CLR
07:46 17.7 °F 15.9 °F 1014.1 in Calm     89 % 0.0 in 137.0 W/m2 CLR
07:51 17.9 °F 15.9 °F 1014.1 in Calm     88 % 0.0 in 149.0 W/m2 CLR
07:56 18.2 °F 16.2 °F 1014.1 in Calm     88 % 0.0 in 167.0 W/m2 CLR
08:01 18.6 °F 16.3 °F 1014.1 in Calm     87 % 0.0 in 186.0 W/m2 CLR
08:06 18.9 °F 16.3 °F 1014.1 in Calm     85 % 0.0 in 199.0 W/m2 CLR
08:11 19.2 °F 16.4 °F 1014.1 in Calm     84 % 0.0 in 213.0 W/m2 CLR
08:16 19.5 °F 16.3 °F 1014.1 in Calm     82 % 0.0 in 227.0 W/m2 CLR
08:17 19.6 °F 16.4 °F 1014.1 in Calm     82 % 0.0 in 236.0 W/m2 CLR
08:22 19.7 °F 16.4 °F 1014.1 in Calm     81 % 0.0 in 253.0 W/m2 CLR
08:27 20.0 °F 16.4 °F 1014.1 in Calm     80 % 0.0 in 264.0 W/m2 CLR
08:32 20.3 °F 16.7 °F 1014.1 in Calm     80 % 0.0 in 272.0 W/m2 CLR
08:37 20.7 °F 16.7 °F 1014.4 in Calm     78 % 0.0 in 285.0 W/m2 CLR
08:42 20.9 °F 16.9 °F 1014.1 in Calm     78 % 0.0 in 302.0 W/m2 CLR
08:47 21.2 °F 16.8 °F 1014.4 in Calm     76 % 0.0 in 316.0 W/m2 CLR
08:52 21.4 °F 16.8 °F 1014.4 in Calm     75 % 0.0 in 332.0 W/m2 CLR
08:58 21.7 °F 16.9 °F 1014.4 in Calm     74 % 0.0 in 348.0 W/m2 CLR
09:03 21.9 °F 16.9 °F 1014.4 in Calm     73 % 0.0 in 385.0 W/m2 CLR
09:08 22.2 °F 16.7 °F 1014.4 in Calm     71 % 0.0 in 404.0 W/m2 CLR
09:13 22.4 °F 16.7 °F 1014.4 in Calm     70 % 0.0 in 410.0 W/m2 CLR
09:18 22.8 °F 16.1 °F 1014.4 in Calm     66 % 0.0 in 434.0 W/m2 CLR
09:23 22.9 °F 16.3 °F 1014.4 in Calm     66 % 0.0 in 455.0 W/m2 CLR
09:28 23.2 °F 16.7 °F 1014.4 in Calm     67 % 0.0 in 476.0 W/m2 CLR
09:33 23.3 °F 16.8 °F 1014.4 in Calm     67 % 0.0 in 427.0 W/m2 CLR
09:38 23.3 °F 16.8 °F 1014.4 in Calm     67 % 0.0 in 446.0 W/m2 CLR
09:43 23.3 °F 17.1 °F 1014.4 in NE 7.4 mph 7.4 mph 68 % 0.0 in 529.0 W/m2 CLR
09:48 23.3 °F 17.3 °F 1014.4 in NE 5.6 mph 5.6 mph 69 % 0.0 in 480.0 W/m2 CLR
09:53 23.4 °F 17.2 °F 1014.4 in NE 4.8 mph 4.8 mph 68 % 0.0 in 399.0 W/m2 CLR
09:58 23.4 °F 16.7 °F 1014.4 in Calm     66 % 0.0 in 401.0 W/m2 CLR
10:03 23.6 °F 16.9 °F 1014.4 in Calm     66 % 0.0 in 596.0 W/m2 CLR
10:08 23.8 °F 16.8 °F 1014.4 in ENE 9.3 mph 9.3 mph 65 % 0.0 in 457.0 W/m2 CLR
10:13 23.8 °F 17.1 °F 1014.8 in ENE 1.9 mph 3.4 mph 66 % 0.0 in 555.0 W/m2 CLR
10:18 24.1 °F 17.1 °F 1014.8 in Calm     65 % 0.0 in 473.0 W/m2 CLR
10:23 24.2 °F 17.0 °F 1014.8 in Calm     64 % 0.0 in 548.0 W/m2 CLR
10:28 24.3 °F 17.1 °F 1014.8 in NNE 7.4 mph   64 % 0.0 in 624.0 W/m2 CLR
10:33 24.5 °F 17.2 °F 1014.8 in NE 5.6 mph 5.6 mph 64 % 0.0 in 612.0 W/m2 CLR
10:38 24.6 °F 17.3 °F 1014.8 in NE 5.6 mph 5.6 mph 64 % 0.0 in 582.0 W/m2 CLR
10:43 24.7 °F 17.4 °F 1014.8 in ENE 7.4 mph   64 % 0.0 in 526.0 W/m2 CLR
10:48 24.8 °F 17.3 °F 1014.8 in NE 5.6 mph 5.6 mph 63 % 0.0 in 568.0 W/m2 CLR
10:53 24.8 °F 17.0 °F 1014.8 in Calm     62 % 0.0 in 584.0 W/m2 CLR
10:58 24.8 °F 17.3 °F 1014.4 in Calm     63 % 0.0 in 605.0 W/m2 CLR
11:03 24.8 °F 17.3 °F 1014.4 in NNE 5.6 mph 5.6 mph 63 % 0.0 in 628.0 W/m2 CLR
11:08 24.9 °F 17.6 °F 1014.4 in Calm     64 % 0.0 in 585.0 W/m2 CLR
11:13 25.2 °F 17.4 °F 1014.4 in Calm     62 % 0.0 in 670.0 W/m2 CLR
11:18 25.4 °F 17.1 °F 1014.4 in Calm     60 % 0.0 in 675.0 W/m2 CLR
11:23 25.6 °F 17.6 °F 1014.4 in NE 7.4 mph 7.4 mph 61 % 0.0 in 675.0 W/m2 CLR
11:28 25.8 °F 17.5 °F 1014.4 in NE 9.3 mph 9.3 mph 60 % 0.0 in 566.0 W/m2 CLR
11:33 25.8 °F 17.4 °F 1014.4 in Calm     60 % 0.0 in 686.0 W/m2 CLR
11:38 25.9 °F 17.3 °F 1014.4 in Calm     59 % 0.0 in 564.0 W/m2 CLR
11:43 26.2 °F 17.8 °F 1014.4 in NE 5.6 mph 5.6 mph 60 % 0.0 in 619.0 W/m2 CLR
11:48 26.3 °F 17.4 °F 1014.4 in Calm     58 % 0.0 in 603.0 W/m2 CLR
11:53 26.2 °F 17.3 °F 1014.4 in North 13.0 mph 13.0 mph 58 % 0.0 in 696.0 W/m2 CLR
11:58 26.3 °F 17.3 °F 1014.4 in NE 9.7 mph 9.7 mph 58 % 0.0 in 738.0 W/m2 CLR
12:03 26.2 °F 17.3 °F 1014.4 in North 7.4 mph 7.4 mph 58 % 0.0 in 759.0 W/m2 CLR
12:08 26.2 °F 17.3 °F 1014.4 in North 6.4 mph 6.4 mph 58 % 0.0 in 650.0 W/m2 CLR
12:13 26.4 °F 17.2 °F 1014.4 in NE 9.3 mph 9.3 mph 57 % 0.0 in 780.0 W/m2 CLR
12:18 26.7 °F 17.2 °F 1014.4 in NNE 5.6 mph 5.6 mph 56 % 0.0 in 759.0 W/m2 CLR
12:23 27.0 °F 17.5 °F 1014.4 in NE 13.0 mph 13.0 mph 56 % 0.0 in 786.0 W/m2 CLR
12:28 27.1 °F 16.9 °F 1014.4 in ENE 11.1 mph 11.1 mph 54 % 0.0 in 828.0 W/m2 CLR
12:33 27.3 °F 16.9 °F 1014.4 in ENE 14.8 mph 14.8 mph 53 % 0.0 in 812.0 W/m2 CLR
12:38 27.4 °F 16.9 °F 1014.1 in ENE 16.7 mph 16.7 mph 53 % 0.0 in 751.0 W/m2 CLR
12:43 27.3 °F 16.3 °F 1014.4 in NNE 5.6 mph 5.6 mph 51 % 0.0 in 795.0 W/m2 CLR
12:48 27.3 °F 16.6 °F 1014.4 in NE 7.4 mph 7.4 mph 52 % 0.0 in 853.0 W/m2 CLR
12:53 27.4 °F 16.3 °F 1014.4 in ENE 13.0 mph 13.0 mph 51 % 0.0 in 868.0 W/m2 CLR
12:58 27.5 °F 16.2 °F 1014.4 in ENE 7.4 mph 7.4 mph 50 % 0.0 in 763.0 W/m2 CLR
13:03 27.6 °F 16.5 °F 1014.4 in North 11.3 mph 11.3 mph 51 % 0.0 in 867.0 W/m2 CLR
13:08 27.8 °F 16.1 °F 1014.1 in Calm     49 % 0.0 in 851.0 W/m2 CLR
13:13 27.8 °F 16.4 °F 1014.1 in North 11.1 mph 11.1 mph 50 % 0.0 in 828.0 W/m2 CLR
13:18 27.9 °F 16.6 °F 1014.1 in NNE 13.0 mph 13.0 mph 50 % 0.0 in 684.0 W/m2 CLR
13:23 27.8 °F 16.4 °F 1014.1 in Calm     50 % 0.0 in 626.0 W/m2 CLR
13:28 27.8 °F 16.8 °F 1014.1 in Calm     51 % 0.0 in 770.0 W/m2 CLR
13:33 28.2 °F 16.8 °F 1014.1 in NNE 9.3 mph 9.3 mph 50 % 0.0 in 809.0 W/m2 CLR
13:38 28.3 °F 16.6 °F 1014.1 in Calm     49 % 0.0 in 798.0 W/m2 CLR
13:43 28.4 °F 16.9 °F 1013.8 in NNE 11.1 mph 11.1 mph 50 % 0.0 in 911.0 W/m2 CLR
13:48 28.6 °F 16.8 °F 1013.8 in ENE 9.3 mph 9.3 mph 49 % 0.0 in 872.0 W/m2 CLR
13:53 28.7 °F 16.9 °F 1013.8 in NNE 5.6 mph 5.6 mph 49 % 0.0 in 914.0 W/m2 CLR
13:58 28.6 °F 16.8 °F 1013.8 in NNE 11.1 mph 11.1 mph 49 % 0.0 in 940.0 W/m2 CLR
14:03 28.8 °F 17.6 °F 1013.8 in Calm     51 % 0.0 in 744.0 W/m2 CLR
14:08 29.2 °F 17.1 °F 1013.8 in North 13.0 mph 13.0 mph 48 % 0.0 in 803.0 W/m2 CLR
14:13 29.2 °F 17.1 °F 1013.8 in North 13.0 mph 13.0 mph 48 % 0.0 in 870.0 W/m2 CLR
14:18 29.4 °F 17.3 °F 1013.8 in Calm     48 % 0.0 in 833.0 W/m2 CLR
14:23 29.6 °F 16.8 °F 1013.4 in SE 7.4 mph 7.4 mph 46 % 0.0 in 874.0 W/m2 CLR
14:28 29.6 °F 17.1 °F 1013.4 in ESE 7.4 mph 7.4 mph 47 % 0.0 in 891.0 W/m2 CLR
14:33 29.7 °F 16.4 °F 1013.4 in SE 5.6 mph 5.6 mph 45 % 0.0 in 889.0 W/m2 CLR
14:38 29.6 °F 17.1 °F 1013.4 in ENE 5.6 mph 5.6 mph 47 % 0.0 in 889.0 W/m2 CLR
14:43 29.8 °F 17.3 °F 1013.4 in ENE 18.5 mph 18.5 mph 47 % 0.0 in 909.0 W/m2 CLR
14:48 29.8 °F 17.3 °F 1013.4 in ESE 1.9 mph   47 % 0.0 in 900.0 W/m2 CLR
14:53 30.0 °F 17.8 °F 1013.4 in ESE 5.6 mph 5.6 mph 48 % 0.0 in 889.0 W/m2 CLR
14:58 30.2 °F 17.3 °F 1013.4 in SSE 14.8 mph 14.8 mph 46 % 0.0 in 803.0 W/m2 CLR
15:03 29.9 °F 17.4 °F 1013.4 in East 18.5 mph 18.5 mph 47 % 0.0 in 909.0 W/m2 CLR
15:08 29.9 °F 17.4 °F 1013.4 in ESE 12.9 mph 12.9 mph 47 % 0.0 in 919.0 W/m2 CLR
15:13 30.1 °F 17.2 °F 1013.1 in ESE 14.5 mph 14.5 mph 46 % 0.0 in 884.0 W/m2 CLR
15:18 29.9 °F 17.4 °F 1013.1 in NE 14.8 mph 14.8 mph 47 % 0.0 in 905.0 W/m2 CLR
15:23 30.1 °F 17.2 °F 1013.1 in East 14.8 mph 14.8 mph 46 % 0.0 in 758.0 W/m2 CLR
15:28 30.1 °F 17.9 °F 1013.1 in ENE 13.0 mph 13.0 mph 48 % 0.0 in 807.0 W/m2 CLR
15:33 30.3 °F 17.7 °F 1013.1 in ESE 18.5 mph 18.5 mph 47 % 0.0 in 865.0 W/m2 CLR
15:38 30.2 °F 17.6 °F 1013.1 in ESE 11.1 mph 11.1 mph 47 % 0.0 in 816.0 W/m2 CLR
15:43 30.3 °F 17.0 °F 1013.1 in ESE 14.8 mph 14.8 mph 45 % 0.0 in 816.0 W/m2 CLR
15:48 30.2 °F 17.3 °F 1013.1 in ENE 3.7 mph 3.7 mph 46 % 0.0 in 821.0 W/m2 CLR
15:54 30.4 °F 17.2 °F 1013.1 in East 16.7 mph 16.7 mph 45 % 0.0 in 747.0 W/m2 CLR
15:59 29.9 °F 17.1 °F 1013.1 in NNE 9.3 mph 9.3 mph 46 % 0.0 in 577.0 W/m2 CLR
16:04 30.0 °F 17.1 °F 1013.1 in NE 16.7 mph 16.7 mph 46 % 0.0 in 823.0 W/m2 CLR
16:09 30.2 °F 16.9 °F 1013.1 in ENE 16.7 mph 16.7 mph 45 % 0.0 in 807.0 W/m2 CLR
16:14 30.4 °F 16.8 °F 1012.8 in ENE 18.5 mph 18.5 mph 44 % 0.0 in 819.0 W/m2 CLR
16:19 30.4 °F 16.8 °F 1012.8 in ENE 18.5 mph 18.5 mph 44 % 0.0 in 693.0 W/m2 CLR
16:24 30.6 °F 16.6 °F 1012.8 in ENE 16.7 mph 16.7 mph 43 % 0.0 in 726.0 W/m2 CLR
16:29 30.5 °F 16.5 °F 1012.8 in NE 16.7 mph 16.7 mph 43 % 0.0 in 584.0 W/m2 CLR
16:34 30.7 °F 16.7 °F 1012.8 in East 16.7 mph 16.7 mph 43 % 0.0 in 721.0 W/m2 CLR
16:39 30.6 °F 16.6 °F 1012.8 in ENE 20.4 mph 20.4 mph 43 % 0.0 in 803.0 W/m2 CLR
16:40 30.6 °F 16.6 °F 1012.8 in East 24.1 mph 24.1 mph 43 % 0.0 in 803.0 W/m2 CLR
16:45 30.5 °F 16.5 °F 1012.8 in East 14.8 mph 14.8 mph 43 % 0.0 in 427.0 W/m2 CLR
16:50 30.5 °F 16.5 °F 1012.8 in ENE 16.7 mph 16.7 mph 43 % 0.0 in 649.0 W/m2 CLR
16:53 30.5 °F 16.5 °F 1012.8 in NE 20.4 mph 20.4 mph 43 % 0.0 in 473.0 W/m2 CLR
16:58 30.6 °F 16.6 °F 1012.8 in ENE 11.1 mph 11.1 mph 43 % 0.0 in 754.0 W/m2 CLR
17:03 30.8 °F 17.2 °F 1012.4 in East 7.4 mph 7.4 mph 44 % 0.0 in 740.0 W/m2 CLR
17:05 30.8 °F 16.8 °F 1012.8 in East 18.5 mph 18.5 mph 43 % 0.0 in 721.0 W/m2 CLR
17:10 30.9 °F 17.2 °F 1012.8 in East 5.6 mph 5.6 mph 44 % 0.0 in 691.0 W/m2 CLR
17:15 30.8 °F 16.8 °F 1012.4 in East 18.5 mph 18.5 mph 43 % 0.0 in 640.0 W/m2 CLR
17:20 30.7 °F 16.7 °F 1012.4 in ESE 16.1 mph 16.1 mph 43 % 0.0 in 631.0 W/m2 CLR
17:25 30.7 °F 16.7 °F 1012.4 in SE 14.8 mph 14.8 mph 43 % 0.0 in 612.0 W/m2 CLR
17:30 30.8 °F 16.8 °F 1012.4 in ESE 20.9 mph 20.9 mph 43 % 0.0 in 622.0 W/m2 CLR
17:35 30.6 °F 15.8 °F 1012.4 in SE 24.1 mph 24.1 mph 41 % 0.0 in 615.0 W/m2 CLR
17:40 30.5 °F 15.8 °F 1012.4 in SE 18.5 mph 18.5 mph 41 % 0.0 in 592.0 W/m2 CLR
17:45 30.4 °F 15.7 °F 1012.4 in ESE 24.1 mph 24.1 mph 41 % 0.0 in 575.0 W/m2 CLR
17:50 30.4 °F 15.7 °F 1012.4 in ESE 22.2 mph 22.2 mph 41 % 0.0 in 552.0 W/m2 CLR
17:55 30.3 °F 15.6 °F 1012.4 in ESE 20.4 mph 20.4 mph 41 % 0.0 in 541.0 W/m2 CLR
18:00 30.3 °F 15.6 °F 1012.4 in SE 18.5 mph 18.5 mph 41 % 0.0 in 529.0 W/m2 CLR
18:05 30.3 °F 15.6 °F 1012.4 in ESE 24.1 mph 24.1 mph 41 % 0.0 in 517.0 W/m2 CLR
18:10 30.5 °F 16.1 °F 1012.4 in SE 18.5 mph 18.5 mph 42 % 0.0 in 503.0 W/m2 CLR
18:15 30.4 °F 15.3 °F 1012.4 in ESE 20.4 mph 20.4 mph 40 % 0.0 in 478.0 W/m2 CLR
18:20 30.3 °F 15.6 °F 1012.4 in SE 27.8 mph 27.8 mph 41 % 0.0 in 466.0 W/m2 CLR
18:25 30.2 °F 15.5 °F 1012.1 in ESE 20.4 mph 20.4 mph 41 % 0.0 in 450.0 W/m2 CLR
18:30 30.2 °F 15.4 °F 1012.4 in ESE 18.5 mph 18.5 mph 41 % 0.0 in 445.0 W/m2 CLR
18:35 30.2 °F 15.9 °F 1012.4 in ESE 18.5 mph 18.5 mph 42 % 0.0 in 439.0 W/m2 CLR
18:41 30.1 °F 15.3 °F 1012.4 in East 22.2 mph 22.2 mph 41 % 0.0 in 411.0 W/m2 CLR
18:45 30.1 °F 15.8 °F 1012.4 in ESE 13.0 mph 13.0 mph 42 % 0.0 in 403.0 W/m2 CLR
18:51 30.1 °F 15.7 °F 1012.4 in SE 20.4 mph 20.4 mph 42 % 0.0 in 383.0 W/m2 CLR
18:56 29.8 °F 15.9 °F 1012.4 in ESE 18.5 mph 18.5 mph 43 % 0.0 in 366.0 W/m2 CLR
19:01 29.7 °F 15.8 °F 1012.4 in SE 16.7 mph 16.7 mph 43 % 0.0 in 352.0 W/m2 CLR
19:06 29.7 °F 15.8 °F 1012.4 in SE 16.7 mph 16.7 mph 43 % 0.0 in 334.0 W/m2 CLR
19:11 29.5 °F 15.2 °F 1012.4 in SE 18.5 mph 18.5 mph 42 % 0.0 in 322.0 W/m2 CLR
19:16 29.3 °F 15.4 °F 1012.4 in SE 18.5 mph 18.5 mph 43 % 0.0 in 309.0 W/m2 CLR
19:21 29.1 °F 14.5 °F 1012.4 in SE 18.5 mph 18.5 mph 41 % 0.0 in 297.0 W/m2 CLR
19:26 29.1 °F 14.5 °F 1012.8 in ESE 18.5 mph 18.5 mph 41 % 0.0 in 276.0 W/m2 CLR
19:31 29.0 °F 14.1 °F 1012.8 in ESE 16.7 mph 16.7 mph 40 % 0.0 in 258.0 W/m2 CLR
19:36 28.9 °F 14.3 °F 1012.8 in ESE 17.7 mph 17.7 mph 41 % 0.0 in 237.0 W/m2 CLR
19:41 28.8 °F 14.2 °F 1012.8 in SSE 16.7 mph 16.7 mph 41 % 0.0 in 218.0 W/m2 CLR
19:46 28.8 °F 13.8 °F 1012.8 in SE 13.0 mph 13.0 mph 40 % 0.0 in 192.0 W/m2 CLR
19:51 28.7 °F 13.7 °F 1012.8 in SE 16.7 mph 16.7 mph 40 % 0.0 in 169.0 W/m2 CLR
19:56 28.5 °F 13.9 °F 1012.8 in SSE 14.5 mph 14.5 mph 41 % 0.0 in 151.0 W/m2 CLR
20:01 28.3 °F 14.2 °F 1012.8 in SE 14.8 mph 14.8 mph 42 % 0.0 in 141.0 W/m2 CLR
20:06 28.2 °F 14.1 °F 1012.8 in SE 9.3 mph 9.3 mph 42 % 0.0 in 128.0 W/m2 CLR
20:11 28.1 °F 13.9 °F 1013.1 in SE 16.7 mph 16.7 mph 42 % 0.0 in 118.0 W/m2 CLR
20:16 28.0 °F 14.3 °F 1012.8 in SE 4.8 mph 4.8 mph 43 % 0.0 in 107.0 W/m2 CLR
20:21 27.9 °F 14.2 °F 1013.1 in ESE 9.7 mph 9.8 mph 43 % 0.0 in 98.0 W/m2 CLR
20:26 27.7 °F 13.9 °F 1013.1 in SE 14.8 mph 14.8 mph 43 % 0.0 in 91.0 W/m2 CLR
20:31 27.5 °F 14.2 °F 1013.1 in SE 7.4 mph 7.4 mph 44 % 0.0 in 79.0 W/m2 FEW
20:32 27.5 °F 14.2 °F 1013.1 in ESE 5.6 mph 5.6 mph 44 % 0.0 in 83.0 W/m2 FEW
20:37 27.4 °F 14.1 °F 1013.1 in SSE 14.8 mph 14.8 mph 44 % 0.0 in 72.0 W/m2 FEW
20:42 27.2 °F 13.9 °F 1013.1 in SE 11.1 mph 11.1 mph 44 % 0.0 in 62.0 W/m2 SCT
20:47 27.1 °F 14.1 °F 1013.4 in SE 7.4 mph 7.4 mph 45 % 0.0 in 44.0 W/m2 BKN
20:52 26.9 °F 13.9 °F 1013.4 in Calm     45 % 0.0 in 42.0 W/m2 BKN
20:57 26.8 °F 13.9 °F 1013.4 in Calm     45 % 0.0 in 37.0 W/m2 BKN
21:02 26.7 °F 14.7 °F 1013.4 in Calm     48 % 0.0 in 30.0 W/m2 BKN
21:07 26.4 °F 14.8 °F 1013.4 in Calm     49 % 0.0 in 25.0 W/m2 BKN
21:12 25.9 °F 15.0 °F 1013.4 in Calm     51 % 0.0 in 19.0 W/m2 BKN
21:17 25.5 °F 14.9 °F 1013.8 in Calm     52 % 0.0 in 14.0 W/m2 BKN
21:22 25.3 °F 14.7 °F 1013.8 in ESE 7.4 mph 7.4 mph 52 % 0.0 in 9.0 W/m2 BKN
21:27 25.1 °F 14.8 °F 1013.8 in Calm     53 % 0.0 in 0.0 W/m2 OVC
21:32 24.9 °F 14.3 °F 1013.8 in Calm     52 % 0.0 in 0.0 W/m2 OVC
21:37 24.7 °F 14.2 °F 1013.8 in Calm     52 % 0.0 in 0.0 W/m2 OVC
21:42 24.6 °F 14.4 °F 1013.8 in Calm     53 % 0.0 in 0.0 W/m2 CLR
21:47 24.5 °F 14.3 °F 1014.1 in Calm     53 % 0.0 in 0.0 W/m2 CLR
21:52 24.3 °F 14.4 °F 1014.1 in Calm     54 % 0.0 in 0.0 W/m2 CLR
21:57 24.1 °F 14.2 °F 1014.1 in Calm     54 % 0.0 in 0.0 W/m2 CLR
22:02 23.8 °F 14.5 °F 1014.1 in Calm     56 % 0.0 in 0.0 W/m2 CLR
22:07 23.7 °F 14.4 °F 1014.1 in Calm     56 % 0.0 in 0.0 W/m2 CLR
22:12 23.5 °F 14.5 °F 1014.1 in Calm     57 % 0.0 in 0.0 W/m2 CLR
22:17 23.3 °F 14.6 °F 1014.1 in Calm     58 % 0.0 in 0.0 W/m2 CLR
22:22 23.1 °F 14.6 °F 1014.4 in Calm     59 % 0.0 in 0.0 W/m2 CLR
22:27 22.9 °F 14.4 °F 1014.4 in Calm     59 % 0.0 in 0.0 W/m2 CLR
22:32 22.7 °F 14.6 °F 1014.4 in Calm     60 % 0.0 in 0.0 W/m2 CLR
22:37 22.6 °F 14.4 °F 1014.4 in Calm     60 % 0.0 in 0.0 W/m2 CLR
22:42 22.4 °F 14.5 °F 1014.8 in Calm     61 % 0.0 in 0.0 W/m2 CLR
22:47 22.3 °F 14.4 °F 1014.8 in Calm     61 % 0.0 in 0.0 W/m2 CLR
22:52 22.2 °F 14.6 °F 1014.8 in Calm     62 % 0.0 in 0.0 W/m2 CLR
22:57 22.1 °F 14.2 °F 1014.8 in Calm     61 % 0.0 in 0.0 W/m2 CLR
23:02 22.1 °F 14.2 °F 1014.8 in Calm     61 % 0.0 in 0.0 W/m2 CLR
23:07 22.1 °F 14.2 °F 1014.8 in Calm     61 % 0.0 in 0.0 W/m2 CLR
23:12 22.1 °F 14.2 °F 1014.8 in Calm     61 % 0.0 in 0.0 W/m2 CLR
23:17 22.1 °F 14.2 °F 1014.8 in Calm     61 % 0.0 in 0.0 W/m2 CLR
23:22 22.1 °F 14.2 °F 1014.8 in Calm     61 % 0.0 in 0.0 W/m2 CLR
23:27 22.1 °F 14.2 °F 1014.8 in Calm     61 % 0.0 in 0.0 W/m2 CLR
23:28 22.0 °F 14.1 °F 1014.8 in Calm     61 % 0.0 in 0.0 W/m2 CLR
23:33 21.9 °F 14.1 °F 1014.8 in Calm     61 % 0.0 in 0.0 W/m2 CLR
23:38 22.0 °F 13.9 °F 1015.1 in Calm     60 % 0.0 in 0.0 W/m2 CLR
23:43 22.0 °F 14.1 °F 1015.1 in Calm     61 % 0.0 in 0.0 W/m2 CLR
23:48 22.0 °F 14.1 °F 1015.1 in Calm     61 % 0.0 in 0.0 W/m2 CLR
23:53 21.9 °F 14.5 °F 1015.1 in Calm     63 % 0.0 in 0.0 W/m2 CLR
23:58 21.6 °F 14.3 °F 1015.1 in ESE 5.6 mph   63 % 0.0 in 0.0 W/m2 CLR
Lo Temps de Massalio
Compliments of Weather Underground - 1.25 mb